Time;durP1;ratioP1;P1;durP2;ratioP2;P2;SDS_P1;SDS_P2;PMS_P1;PMS_P2;Temp;Humidity;BMP_temperature;BMP_pressure;BME280_temperature;BME280_humidity;BME280_pressure;Samples;Min_cycle;Max_cycle;Signal;HPM_P1;HPM_P2
2024/03/10 00:00:53;;;;;;;33.40;21.80;;;;;;;;;;5116141;28;20050;-94
2024/03/10 00:03:19;;;;;;;34.38;21.65;;;;;;;;;;5117924;28;20032;-95
2024/03/10 00:05:45;;;;;;;36.00;22.23;;;;;;;;;;5088450;28;20024;-95
2024/03/10 00:08:12;;;;;;;34.22;21.00;;;;;;;;;;5102606;28;20027;-91
2024/03/10 00:10:40;;;;;;;32.60;21.05;;;;;;;;;;5102668;28;20052;-95
2024/03/10 00:13:08;;;;;;;32.75;21.50;;;;;;;;;;5104034;28;20055;-94
2024/03/10 00:15:37;;;;;;;34.90;20.70;;;;;;;;;;5120809;28;20107;-95
2024/03/10 00:18:05;;;;;;;34.60;20.95;;;;;;;;;;5104084;28;20020;-93
2024/03/10 00:20:32;;;;;;;32.50;20.50;;;;;;;;;;5102505;28;20039;-95
2024/03/10 00:22:58;;;;;;;34.03;20.70;;;;;;;;;;5103166;28;20024;-93
2024/03/10 00:25:25;;;;;;;32.13;19.77;;;;;;;;;;5102535;28;20047;-93
2024/03/10 00:27:51;;;;;;;35.10;20.85;;;;;;;;;;5102490;28;20388;-93
2024/03/10 00:30:18;;;;;;;32.20;20.48;;;;;;;;;;5104090;28;20036;-91
2024/03/10 00:32:44;;;;;;;31.55;19.73;;;;;;;;;;5122059;28;20042;-91
2024/03/10 00:35:11;;;;;;;32.15;20.58;;;;;;;;;;5113656;28;20139;-92
2024/03/10 00:37:41;;;;;;;29.60;19.38;;;;;;;;;;5121277;28;20027;-94
2024/03/10 00:40:08;;;;;;;35.00;22.77;;;;;;;;;;5101537;28;20406;-93
2024/03/10 00:42:34;;;;;;;32.28;20.67;;;;;;;;;;5102015;28;20047;-94
2024/03/10 00:45:00;;;;;;;31.27;20.88;;;;;;;;;;5104056;28;20480;-93
2024/03/10 00:47:27;;;;;;;33.42;20.88;;;;;;;;;;5105303;28;20024;-90
2024/03/10 00:49:53;;;;;;;31.63;21.05;;;;;;;;;;5101684;28;20138;-93
2024/03/10 00:52:19;;;;;;;34.20;21.70;;;;;;;;;;5101766;28;20383;-93
2024/03/10 00:54:46;;;;;;;35.78;21.15;;;;;;;;;;5106287;28;20040;-90
2024/03/10 00:57:12;;;;;;;34.25;21.42;;;;;;;;;;5111792;28;20035;-93
2024/03/10 00:59:38;;;;;;;32.13;20.38;;;;;;;;;;5101855;28;20028;-92
2024/03/10 01:02:05;;;;;;;33.85;20.88;;;;;;;;;;5100255;28;20472;-94
2024/03/10 01:04:33;;;;;;;37.50;21.98;;;;;;;;;;5100255;28;20035;-93
2024/03/10 01:06:59;;;;;;;31.95;21.45;;;;;;;;;;5100628;28;20032;-92
2024/03/10 01:09:27;;;;;;;33.35;21.42;;;;;;;;;;5101401;28;20099;-93
2024/03/10 01:11:53;;;;;;;34.45;21.52;;;;;;;;;;5101205;28;20050;-91
2024/03/10 01:14:19;;;;;;;35.42;22.95;;;;;;;;;;5101705;28;20023;-93
2024/03/10 01:16:46;;;;;;;33.15;21.65;;;;;;;;;;5101284;28;20043;-93
2024/03/10 01:19:13;;;;;;;38.47;21.48;;;;;;;;;;5101536;28;20024;-92
2024/03/10 01:21:39;;;;;;;33.25;22.08;;;;;;;;;;5102830;28;20023;-94
2024/03/10 01:24:05;;;;;;;35.20;21.92;;;;;;;;;;5102559;28;20020;-95
2024/03/10 01:26:32;;;;;;;35.15;21.00;;;;;;;;;;5102568;28;20028;-94
2024/03/10 01:28:58;;;;;;;31.15;20.05;;;;;;;;;;5103269;28;20046;-94
2024/03/10 01:31:26;;;;;;;34.63;22.02;;;;;;;;;;5100641;28;20035;-92
2024/03/10 01:33:52;;;;;;;33.45;21.70;;;;;;;;;;5100490;28;20020;-94
2024/03/10 01:36:18;;;;;;;33.97;21.85;;;;;;;;;;5101407;28;20024;-92
2024/03/10 01:38:45;;;;;;;31.70;20.73;;;;;;;;;;5104414;28;20027;-93
2024/03/10 01:41:12;;;;;;;33.35;20.75;;;;;;;;;;5121579;28;20012;-94
2024/03/10 01:43:40;;;;;;;34.65;23.48;;;;;;;;;;5107637;28;20028;-92
2024/03/10 01:46:11;;;;;;;33.90;23.05;;;;;;;;;;5100346;28;20023;-94
2024/03/10 01:48:37;;;;;;;34.83;21.23;;;;;;;;;;5101284;28;20034;-93
2024/03/10 01:51:07;;;;;;;35.00;22.08;;;;;;;;;;5098870;28;20130;-93
2024/03/10 01:53:35;;;;;;;32.95;21.15;;;;;;;;;;5098349;28;20039;-93
2024/03/10 01:56:06;;;;;;;36.13;21.75;;;;;;;;;;5097957;28;20021;-93
2024/03/10 01:58:32;;;;;;;36.20;21.85;;;;;;;;;;5099705;28;20027;-93
2024/03/10 02:01:03;;;;;;;35.25;21.65;;;;;;;;;;5100781;28;20023;-93
2024/03/10 02:03:32;;;;;;;35.55;22.63;;;;;;;;;;5100303;28;20028;-93
2024/03/10 02:05:58;;;;;;;31.80;20.05;;;;;;;;;;5100404;28;20023;-94
2024/03/10 02:08:26;;;;;;;35.00;22.05;;;;;;;;;;5101365;28;20028;-92
2024/03/10 02:10:53;;;;;;;34.13;21.75;;;;;;;;;;5099395;28;20071;-94
2024/03/10 02:13:21;;;;;;;33.47;21.10;;;;;;;;;;5100249;28;20387;-90
2024/03/10 02:16:03;;;;;;;32.05;19.33;;;;;;;;;;5098624;28;20028;-94
2024/03/10 02:18:30;;;;;;;31.90;19.27;;;;;;;;;;5119773;28;20068;-95
2024/03/10 02:20:58;;;;;;;30.98;19.08;;;;;;;;;;5100651;28;20075;-92
2024/03/10 02:23:25;;;;;;;31.02;20.58;;;;;;;;;;5115599;28;20023;-90
2024/03/10 02:25:52;;;;;;;30.75;19.38;;;;;;;;;;5105176;28;20111;-91
2024/03/10 02:28:33;;;;;;;29.40;21.15;;;;;;;;;;5104476;28;20031;-92
2024/03/10 02:47:11;;;;;;;30.13;19.45;;;;;;;;;;5104870;28;20050;-92
2024/03/10 02:47:35;;;;;;;32.40;19.33;;;;;;;;;;5118222;28;20061;-92
2024/03/10 02:50:05;;;;;;;29.40;19.00;;;;;;;;;;5098988;28;20058;-94
2024/03/10 02:52:35;;;;;;;25.92;17.90;;;;;;;;;;5099693;28;20033;-92
2024/03/10 02:55:03;;;;;;;26.92;17.52;;;;;;;;;;5099678;28;20023;-94
2024/03/10 02:57:33;;;;;;;29.08;20.10;;;;;;;;;;5099554;28;20024;-92
2024/03/10 02:59:59;;;;;;;26.98;18.95;;;;;;;;;;5100080;28;20388;-94
2024/03/10 03:02:26;;;;;;;26.50;17.27;;;;;;;;;;5101009;28;20103;-93
2024/03/10 03:04:53;;;;;;;26.73;18.20;;;;;;;;;;5100209;28;20026;-93
2024/03/10 03:07:20;;;;;;;24.52;17.58;;;;;;;;;;5098960;28;20032;-95
2024/03/10 03:09:47;;;;;;;26.75;17.50;;;;;;;;;;5100720;28;20030;-92
2024/03/10 03:12:13;;;;;;;23.90;16.55;;;;;;;;;;5102731;28;20042;-94
2024/03/10 03:14:40;;;;;;;26.13;17.70;;;;;;;;;;5104168;28;20122;-91
2024/03/10 03:17:06;;;;;;;24.10;17.02;;;;;;;;;;5103441;28;20023;-94
2024/03/10 03:19:32;;;;;;;26.13;17.85;;;;;;;;;;5122188;28;20029;-93
2024/03/10 03:22:00;;;;;;;28.33;19.13;;;;;;;;;;5114662;28;20048;-93
2024/03/10 03:24:26;;;;;;;24.73;17.20;;;;;;;;;;5105776;28;20019;-93
2024/03/10 03:26:53;;;;;;;24.33;16.63;;;;;;;;;;5104023;28;20024;-93
2024/03/10 03:29:23;;;;;;;25.02;16.15;;;;;;;;;;5103986;28;20031;-91
2024/03/10 03:31:50;;;;;;;26.63;17.17;;;;;;;;;;5123368;28;20039;-91
2024/03/10 03:34:16;;;;;;;26.70;17.05;;;;;;;;;;5113967;28;20031;-92
2024/03/10 03:36:43;;;;;;;26.67;16.95;;;;;;;;;;5103572;28;20024;-94
2024/03/10 03:39:11;;;;;;;26.77;17.17;;;;;;;;;;5102106;28;20055;-93
2024/03/10 03:41:37;;;;;;;25.88;16.83;;;;;;;;;;5102160;28;20027;-94
2024/03/10 03:44:04;;;;;;;25.33;16.85;;;;;;;;;;5102501;28;20077;-95
2024/03/10 03:46:30;;;;;;;27.48;16.63;;;;;;;;;;5103827;28;20020;-95
2024/03/10 03:48:57;;;;;;;25.88;16.73;;;;;;;;;;5107795;28;20122;-90
2024/03/10 03:51:23;;;;;;;27.80;17.88;;;;;;;;;;5109355;28;20090;-92
2024/03/10 03:53:49;;;;;;;27.27;17.15;;;;;;;;;;5102319;28;20024;-95
2024/03/10 03:56:16;;;;;;;25.48;17.98;;;;;;;;;;5101147;28;20376;-92
2024/03/10 03:58:42;;;;;;;26.00;17.30;;;;;;;;;;5100920;28;20479;-94
2024/03/10 04:01:08;;;;;;;25.58;17.65;;;;;;;;;;5101964;28;20027;-92
2024/03/10 04:03:34;;;;;;;28.25;17.88;;;;;;;;;;5101365;28;20129;-94
2024/03/10 04:06:01;;;;;;;28.63;17.55;;;;;;;;;;5101592;28;20094;-95
2024/03/10 04:08:28;;;;;;;26.17;16.20;;;;;;;;;;5120716;28;20024;-92
2024/03/10 04:10:54;;;;;;;27.25;17.67;;;;;;;;;;5101454;28;20040;-94
2024/03/10 04:13:20;;;;;;;26.75;17.90;;;;;;;;;;5102179;28;20034;-92
2024/03/10 04:15:46;;;;;;;25.55;17.67;;;;;;;;;;5105165;28;20077;-92
2024/03/10 04:18:13;;;;;;;25.23;16.25;;;;;;;;;;5119241;28;20506;-94
2024/03/10 04:20:41;;;;;;;23.08;15.63;;;;;;;;;;5100816;28;20038;-93
2024/03/10 04:23:07;;;;;;;24.63;16.83;;;;;;;;;;5101251;28;20026;-95
2024/03/10 04:25:37;;;;;;;23.92;16.05;;;;;;;;;;5100924;28;20032;-92
2024/03/10 04:28:03;;;;;;;26.05;18.17;;;;;;;;;;5100526;28;20028;-94
2024/03/10 04:30:29;;;;;;;29.58;17.35;;;;;;;;;;5100187;28;20069;-93
2024/03/10 04:32:55;;;;;;;26.15;18.02;;;;;;;;;;5100209;28;20388;-93
2024/03/10 04:35:21;;;;;;;26.30;17.17;;;;;;;;;;5099808;28;20024;-94
2024/03/10 04:37:48;;;;;;;25.30;17.10;;;;;;;;;;5100041;28;20028;-93
2024/03/10 04:40:16;;;;;;;26.33;17.95;;;;;;;;;;5098812;28;20042;-94
2024/03/10 04:42:43;;;;;;;27.23;17.85;;;;;;;;;;5098897;28;20167;-93
2024/03/10 04:45:11;;;;;;;26.63;17.98;;;;;;;;;;5098414;28;20032;-91
2024/03/10 04:47:38;;;;;;;26.77;17.63;;;;;;;;;;5098739;28;20067;-92
2024/03/10 04:50:04;;;;;;;26.52;17.08;;;;;;;;;;5094545;28;20048;-93
2024/03/10 04:52:30;;;;;;;26.13;17.48;;;;;;;;;;5094799;28;20115;-94
2024/03/10 04:54:57;;;;;;;24.95;17.58;;;;;;;;;;5095879;28;20044;-93
2024/03/10 04:57:24;;;;;;;24.20;17.60;;;;;;;;;;5096260;28;20050;-93
2024/03/10 04:59:51;;;;;;;26.65;18.23;;;;;;;;;;5117477;28;20020;-93
2024/03/10 05:02:17;;;;;;;25.08;17.33;;;;;;;;;;5103926;28;20366;-91
2024/03/10 05:04:46;;;;;;;26.38;17.45;;;;;;;;;;5096446;28;20024;-94
2024/03/10 05:07:13;;;;;;;27.60;18.00;;;;;;;;;;5097193;28;20069;-92
2024/03/10 05:09:40;;;;;;;26.38;17.08;;;;;;;;;;5097839;28;20034;-94
2024/03/10 05:12:08;;;;;;;26.67;17.90;;;;;;;;;;5097086;28;20028;-95
2024/03/10 05:14:36;;;;;;;26.08;17.42;;;;;;;;;;5096452;28;20494;-92
2024/03/10 05:17:02;;;;;;;26.52;18.00;;;;;;;;;;5113376;28;20020;-95
2024/03/10 05:19:29;;;;;;;26.40;18.25;;;;;;;;;;5099200;28;20388;-93
2024/03/10 05:21:55;;;;;;;26.67;18.92;;;;;;;;;;5097044;28;20115;-94
2024/03/10 05:24:22;;;;;;;26.63;18.35;;;;;;;;;;5095810;28;20072;-94
2024/03/10 05:26:49;;;;;;;27.88;18.55;;;;;;;;;;5096409;28;20024;-94
2024/03/10 05:29:15;;;;;;;26.35;17.75;;;;;;;;;;5095713;28;20062;-92
2024/03/10 05:31:43;;;;;;;27.50;17.20;;;;;;;;;;5096060;28;20400;-93
2024/03/10 05:34:10;;;;;;;28.38;18.33;;;;;;;;;;5094857;28;20454;-94
2024/03/10 05:36:36;;;;;;;27.17;18.55;;;;;;;;;;5095649;28;20028;-94
2024/03/10 05:39:02;;;;;;;27.92;18.17;;;;;;;;;;5095500;28;20027;-94
2024/03/10 05:41:28;;;;;;;31.00;19.80;;;;;;;;;;5095180;28;20028;-93
2024/03/10 05:43:55;;;;;;;28.60;18.50;;;;;;;;;;5095167;28;20069;-92
2024/03/10 05:46:21;;;;;;;28.42;19.15;;;;;;;;;;5096537;28;20039;-93
2024/03/10 05:48:47;;;;;;;29.65;19.42;;;;;;;;;;5095923;28;20024;-94
2024/03/10 05:51:14;;;;;;;29.00;18.77;;;;;;;;;;5095362;28;20067;-91
2024/03/10 05:53:41;;;;;;;28.48;19.08;;;;;;;;;;5094989;28;20073;-94
2024/03/10 05:56:08;;;;;;;28.02;18.65;;;;;;;;;;5095983;28;20054;-94
2024/03/10 05:58:40;;;;;;;32.78;20.02;;;;;;;;;;5096486;28;20122;-94
2024/03/10 06:01:07;;;;;;;31.20;18.15;;;;;;;;;;5096580;28;20123;-93
2024/03/10 06:03:33;;;;;;;28.52;18.15;;;;;;;;;;5098649;28;20065;-94
2024/03/10 06:06:00;;;;;;;27.05;17.67;;;;;;;;;;5095373;28;20024;-93
2024/03/10 06:08:26;;;;;;;29.23;18.90;;;;;;;;;;5094982;28;20560;-91
2024/03/10 06:10:53;;;;;;;29.55;18.77;;;;;;;;;;5094340;28;20476;-95
2024/03/10 06:13:20;;;;;;;29.77;19.35;;;;;;;;;;5095027;28;20029;-92
2024/03/10 06:15:47;;;;;;;31.40;20.48;;;;;;;;;;5094763;28;20084;-94
2024/03/10 06:18:21;;;;;;;28.00;18.60;;;;;;;;;;5094654;28;20161;-94
2024/03/10 06:26:21;;;;;;;29.85;18.55;;;;;;;;;;5096020;28;20495;-95
2024/03/10 06:28:49;;;;;;;26.85;17.10;;;;;;;;;;5096300;28;20050;-93
2024/03/10 06:31:16;;;;;;;27.90;18.60;;;;;;;;;;5115213;28;20108;-92
2024/03/10 06:33:42;;;;;;;28.38;18.80;;;;;;;;;;5111842;28;20085;-93
2024/03/10 06:36:08;;;;;;;26.60;18.58;;;;;;;;;;5095566;28;20024;-94
2024/03/10 06:38:38;;;;;;;26.88;19.10;;;;;;;;;;5108596;28;20032;-92
2024/03/10 06:41:06;;;;;;;27.95;18.17;;;;;;;;;;5110193;28;20044;-93
2024/03/10 06:43:34;;;;;;;29.42;17.38;;;;;;;;;;5111397;28;20024;-94
2024/03/10 06:46:00;;;;;;;26.80;17.73;;;;;;;;;;5098254;28;20024;-95
2024/03/10 06:48:26;;;;;;;28.67;18.48;;;;;;;;;;5094450;28;20069;-94
2024/03/10 06:50:54;;;;;;;24.67;16.70;;;;;;;;;;5093764;28;20071;-94
2024/03/10 06:53:21;;;;;;;28.55;18.08;;;;;;;;;;5095974;28;20063;-91
2024/03/10 06:55:48;;;;;;;26.95;18.15;;;;;;;;;;5096398;28;20046;-95
2024/03/10 06:58:14;;;;;;;26.65;18.00;;;;;;;;;;5096307;28;20034;-93
2024/03/10 07:00:41;;;;;;;33.10;20.65;;;;;;;;;;5094413;28;20024;-94
2024/03/10 07:03:10;;;;;;;31.00;20.25;;;;;;;;;;5093800;28;20133;-95
2024/03/10 07:05:37;;;;;;;26.83;18.15;;;;;;;;;;5093810;28;20105;-95
2024/03/10 07:08:03;;;;;;;27.63;17.98;;;;;;;;;;5094685;28;20044;-93
2024/03/10 07:10:31;;;;;;;28.88;17.63;;;;;;;;;;5096081;28;20036;-92
2024/03/10 07:12:57;;;;;;;29.30;17.85;;;;;;;;;;5094437;28;20028;-94
2024/03/10 07:15:24;;;;;;;25.65;17.70;;;;;;;;;;5079045;28;20461;-91
2024/03/10 07:17:51;;;;;;;28.77;18.52;;;;;;;;;;5094798;28;20030;-94
2024/03/10 07:20:18;;;;;;;27.25;16.95;;;;;;;;;;5094241;28;20031;-92
2024/03/10 07:22:45;;;;;;;26.67;17.67;;;;;;;;;;5094578;28;20056;-94
2024/03/10 07:25:14;;;;;;;27.60;18.80;;;;;;;;;;5094947;28;20024;-93
2024/03/10 07:27:41;;;;;;;25.92;18.30;;;;;;;;;;5096083;28;20066;-92
2024/03/10 07:30:09;;;;;;;26.70;18.75;;;;;;;;;;5095892;28;20041;-94
2024/03/10 07:32:36;;;;;;;28.52;17.48;;;;;;;;;;5100227;28;20059;-91
2024/03/10 07:35:03;;;;;;;28.90;18.55;;;;;;;;;;5097931;28;20111;-94
2024/03/10 07:37:29;;;;;;;28.25;19.65;;;;;;;;;;5096698;28;20028;-94
2024/03/10 07:39:56;;;;;;;28.58;20.27;;;;;;;;;;5096319;28;20025;-93
2024/03/10 07:42:23;;;;;;;28.63;18.25;;;;;;;;;;5098126;28;20503;-92
2024/03/10 07:44:50;;;;;;;27.42;19.77;;;;;;;;;;5097272;28;20094;-92
2024/03/10 07:47:16;;;;;;;25.90;18.73;;;;;;;;;;5097321;28;20050;-93
2024/03/10 07:49:42;;;;;;;27.98;18.63;;;;;;;;;;5102804;28;20111;-92
2024/03/10 07:52:08;;;;;;;28.17;20.00;;;;;;;;;;5098622;28;20027;-93
2024/03/10 07:54:34;;;;;;;28.55;19.13;;;;;;;;;;5097741;28;20032;-94
2024/03/10 07:57:01;;;;;;;24.48;18.83;;;;;;;;;;5098087;28;20126;-92
2024/03/10 07:59:28;;;;;;;29.90;19.92;;;;;;;;;;5102222;28;20020;-93
2024/03/10 08:01:54;;;;;;;27.13;21.02;;;;;;;;;;5103286;28;20099;-94
2024/03/10 08:04:22;;;;;;;29.13;19.88;;;;;;;;;;5101020;28;20115;-91
2024/03/10 08:06:48;;;;;;;27.52;19.30;;;;;;;;;;5100939;28;20019;-94
2024/03/10 08:09:15;;;;;;;27.80;17.65;;;;;;;;;;5114503;28;20023;-92
2024/03/10 08:11:44;;;;;;;28.33;20.52;;;;;;;;;;5108167;28;20036;-91
2024/03/10 08:14:10;;;;;;;30.50;19.55;;;;;;;;;;5101858;28;20027;-94
2024/03/10 08:16:37;;;;;;;30.58;18.88;;;;;;;;;;5105599;28;20069;-92
2024/03/10 08:19:03;;;;;;;28.85;19.35;;;;;;;;;;5120512;28;20053;-93
2024/03/10 08:21:30;;;;;;;26.45;18.52;;;;;;;;;;5106866;28;20107;-92
2024/03/10 08:23:57;;;;;;;30.98;20.65;;;;;;;;;;5101858;28;20035;-92
2024/03/10 08:26:23;;;;;;;28.58;19.30;;;;;;;;;;5102100;28;20027;-94
2024/03/10 08:28:49;;;;;;;26.45;19.98;;;;;;;;;;5101913;28;20023;-93
2024/03/10 08:31:19;;;;;;;28.20;19.65;;;;;;;;;;5103757;28;20027;-93
2024/03/10 08:33:45;;;;;;;28.38;18.80;;;;;;;;;;5103625;28;20061;-92
2024/03/10 08:36:11;;;;;;;25.77;20.27;;;;;;;;;;5105860;28;20038;-94
2024/03/10 08:38:39;;;;;;;28.88;20.27;;;;;;;;;;5104204;28;20020;-93
2024/03/10 08:41:05;;;;;;;30.95;22.60;;;;;;;;;;5105048;28;20077;-94
2024/03/10 08:43:32;;;;;;;29.20;23.08;;;;;;;;;;5104105;28;20019;-93
2024/03/10 08:46:02;;;;;;;29.48;22.88;;;;;;;;;;5120435;28;20041;-95
2024/03/10 08:48:28;;;;;;;29.55;22.45;;;;;;;;;;5102427;28;20091;-94
2024/03/10 08:50:55;;;;;;;30.77;25.85;;;;;;;;;;5102822;28;20077;-93
2024/03/10 08:53:21;;;;;;;32.65;24.92;;;;;;;;;;5101815;28;20074;-94
2024/03/10 08:55:47;;;;;;;30.35;22.05;;;;;;;;;;5099757;28;20032;-94
2024/03/10 08:58:17;;;;;;;28.70;23.05;;;;;;;;;;5101983;28;20031;-92
2024/03/10 09:00:43;;;;;;;31.15;25.30;;;;;;;;;;5100589;28;20487;-95
2024/03/10 09:03:10;;;;;;;27.55;23.92;;;;;;;;;;5101160;28;20115;-93
2024/03/10 09:05:36;;;;;;;26.65;22.60;;;;;;;;;;5100814;28;20392;-95
2024/03/10 09:08:02;;;;;;;30.17;27.17;;;;;;;;;;5100929;28;20035;-94
2024/03/10 09:10:29;;;;;;;34.63;31.10;;;;;;;;;;5103983;28;20039;-93
2024/03/10 09:12:56;;;;;;;28.08;25.17;;;;;;;;;;5102794;28;20031;-94
2024/03/10 09:15:23;;;;;;;27.65;21.40;;;;;;;;;;5101433;28;20082;-93
2024/03/10 09:17:52;;;;;;;27.13;22.42;;;;;;;;;;5101775;28;20016;-94
2024/03/10 09:20:20;;;;;;;26.52;22.77;;;;;;;;;;5102390;28;20023;-93
2024/03/10 09:22:47;;;;;;;25.33;22.33;;;;;;;;;;5102326;28;20037;-94
2024/03/10 09:25:23;;;;;;;28.20;23.33;;;;;;;;;;5101942;28;20027;-94
2024/03/10 09:27:53;;;;;;;29.05;25.80;;;;;;;;;;5120908;28;20015;-94
2024/03/10 09:30:30;;;;;;;30.20;24.50;;;;;;;;;;5109873;28;20046;-94
2024/03/10 09:32:56;;;;;;;32.38;24.20;;;;;;;;;;5101928;28;20024;-92
2024/03/10 09:35:34;;;;;;;31.35;27.08;;;;;;;;;;5118252;28;20095;-90
2024/03/10 09:38:04;;;;;;;40.60;36.58;;;;;;;;;;5127547;28;20031;-94
2024/03/10 09:40:32;;;;;;;30.90;24.42;;;;;;;;;;5101398;28;20027;-92
2024/03/10 09:43:02;;;;;;;28.73;23.33;;;;;;;;;;5101256;28;20472;-94
2024/03/10 09:45:31;;;;;;;28.85;25.88;;;;;;;;;;5101031;28;20050;-91
2024/03/10 09:47:58;;;;;;;32.10;28.52;;;;;;;;;;5102038;28;20058;-92
2024/03/10 09:50:24;;;;;;;30.83;27.50;;;;;;;;;;5098975;28;20093;-94
2024/03/10 09:52:52;;;;;;;31.10;27.25;;;;;;;;;;5100975;28;20377;-93
2024/03/10 09:55:20;;;;;;;32.85;28.33;;;;;;;;;;5115626;28;20009;-93
2024/03/10 09:57:53;;;;;;;32.28;27.00;;;;;;;;;;5107678;28;20064;-92
2024/03/10 10:00:23;;;;;;;34.47;30.95;;;;;;;;;;5099211;28;20012;-95
2024/03/10 10:02:51;;;;;;;28.67;25.35;;;;;;;;;;5098914;28;20024;-92
2024/03/10 10:05:24;;;;;;;30.10;26.98;;;;;;;;;;5098013;28;20024;-95
2024/03/10 10:07:52;;;;;;;32.42;29.08;;;;;;;;;;5099151;28;20031;-94
2024/03/10 10:10:22;;;;;;;30.77;27.33;;;;;;;;;;5102101;28;20038;-94
2024/03/10 10:12:49;;;;;;;32.55;28.35;;;;;;;;;;5099543;28;20024;-96
2024/03/10 10:15:22;;;;;;;33.42;29.85;;;;;;;;;;5100106;28;20036;-95
2024/03/10 10:17:58;;;;;;;35.08;31.20;;;;;;;;;;5098518;28;20083;-93
2024/03/10 10:20:28;;;;;;;29.15;25.92;;;;;;;;;;5098549;28;20032;-95
2024/03/10 10:22:55;;;;;;;31.40;26.17;;;;;;;;;;5099964;28;20040;-93
2024/03/10 10:25:22;;;;;;;31.48;28.08;;;;;;;;;;5099041;28;20035;-95
2024/03/10 10:27:50;;;;;;;31.73;28.45;;;;;;;;;;5101266;28;20024;-93
2024/03/10 10:30:22;;;;;;;31.10;26.50;;;;;;;;;;5098953;28;20043;-94
2024/03/10 10:33:04;;;;;;;30.23;27.10;;;;;;;;;;5100364;28;20023;-93
2024/03/10 10:35:33;;;;;;;29.92;26.73;;;;;;;;;;5100259;28;20020;-93
2024/03/10 10:38:11;;;;;;;29.95;26.58;;;;;;;;;;5100696;28;20063;-93
2024/03/10 10:40:38;;;;;;;30.88;27.50;;;;;;;;;;5098615;28;20028;-95
2024/03/10 10:43:08;;;;;;;31.63;27.65;;;;;;;;;;5099124;28;20032;-95
2024/03/10 10:45:35;;;;;;;30.70;27.48;;;;;;;;;;5098232;28;20020;-95
2024/03/10 10:48:01;;;;;;;32.00;28.67;;;;;;;;;;5097960;28;20024;-95
2024/03/10 10:50:34;;;;;;;30.92;27.73;;;;;;;;;;5102262;28;20515;-93
2024/03/10 10:53:05;;;;;;;33.47;29.88;;;;;;;;;;5101956;28;20027;-94
2024/03/10 10:55:32;;;;;;;27.90;24.67;;;;;;;;;;5103113;28;20027;-95
2024/03/10 10:58:06;;;;;;;28.00;24.73;;;;;;;;;;5122908;28;20020;-96
2024/03/10 11:00:35;;;;;;;29.70;26.48;;;;;;;;;;5128912;28;20018;-91
2024/03/10 11:03:13;;;;;;;30.05;26.75;;;;;;;;;;5128751;28;20085;-95
2024/03/10 11:05:41;;;;;;;31.33;28.02;;;;;;;;;;5104179;28;20032;-93
2024/03/10 11:08:08;;;;;;;31.38;27.83;;;;;;;;;;5122231;28;20054;-96
2024/03/10 11:10:49;;;;;;;30.92;25.80;;;;;;;;;;5102255;28;20126;-92
2024/03/10 11:13:15;;;;;;;28.10;25.10;;;;;;;;;;5100409;28;20027;-93
2024/03/10 11:15:44;;;;;;;26.80;21.65;;;;;;;;;;5086334;28;20106;-95
2024/03/10 11:18:26;;;;;;;30.92;27.80;;;;;;;;;;5089284;28;20032;-94
2024/03/10 11:20:58;;;;;;;28.88;25.88;;;;;;;;;;5110552;28;20035;-92
2024/03/10 11:23:30;;;;;;;27.67;24.63;;;;;;;;;;5124906;28;20496;-93
2024/03/10 11:26:01;;;;;;;26.95;21.35;;;;;;;;;;5103314;28;20039;-94
2024/03/10 11:28:46;;;;;;;27.67;22.58;;;;;;;;;;5102031;28;20027;-93
2024/03/10 11:31:14;;;;;;;30.95;27.77;;;;;;;;;;5117240;28;20067;-94
2024/03/10 11:33:41;;;;;;;30.13;26.92;;;;;;;;;;5112226;28;20081;-93
2024/03/10 11:36:07;;;;;;;25.95;23.17;;;;;;;;;;5108482;28;20054;-95
2024/03/10 11:38:34;;;;;;;32.95;29.52;;;;;;;;;;5117321;28;20028;-94
2024/03/10 11:41:01;;;;;;;27.40;23.85;;;;;;;;;;5102587;28;20031;-93
2024/03/10 11:43:48;;;;;;;27.85;24.48;;;;;;;;;;5102245;28;20031;-95
2024/03/10 11:46:18;;;;;;;30.58;25.02;;;;;;;;;;5106595;28;20028;-95
2024/03/10 11:48:48;;;;;;;29.65;26.55;;;;;;;;;;5107307;28;20032;-95
2024/03/10 11:51:15;;;;;;;26.85;23.13;;;;;;;;;;5096962;28;20047;-94
2024/03/10 11:53:41;;;;;;;28.42;25.40;;;;;;;;;;5097139;28;20024;-95
2024/03/10 11:56:14;;;;;;;28.45;25.05;;;;;;;;;;5097592;28;20020;-94
2024/03/10 11:58:47;;;;;;;30.25;27.05;;;;;;;;;;5097777;28;20089;-93
2024/03/10 12:01:16;;;;;;;23.45;18.85;;;;;;;;;;5098002;28;20086;-94
2024/03/10 12:04:19;;;;;;;28.45;23.13;;;;;;;;;;5103642;28;20024;-94
2024/03/10 12:06:57;;;;;;;31.33;28.38;;;;;;;;;;5090534;28;20060;-93
2024/03/10 12:09:32;;;;;;;24.90;22.23;;;;;;;;;;5083299;28;20047;-96
2024/03/10 12:12:14;;;;;;;25.08;22.38;;;;;;;;;;5095096;28;20126;-95
2024/03/10 12:14:44;;;;;;;26.02;22.10;;;;;;;;;;5110535;28;20057;-92
2024/03/10 12:17:13;;;;;;;25.63;22.98;;;;;;;;;;5117524;28;20029;-93
2024/03/10 12:19:40;;;;;;;23.48;20.98;;;;;;;;;;5098624;28;20498;-95
2024/03/10 12:22:13;;;;;;;26.58;20.65;;;;;;;;;;5097597;28;20032;-92
2024/03/10 12:25:04;;;;;;;26.77;22.08;;;;;;;;;;5096851;28;20024;-96
2024/03/10 12:27:35;;;;;;;25.80;22.58;;;;;;;;;;5096617;28;20032;-96
2024/03/10 12:30:02;;;;;;;25.35;21.83;;;;;;;;;;5120373;28;20013;-94
2024/03/10 12:35:40;;;;;;;26.42;23.90;;;;;;;;;;5119838;23;20080;-94
2024/03/10 12:38:07;;;;;;;24.73;21.85;;;;;;;;;;5020316;28;20034;-95
2024/03/10 12:40:33;;;;;;;26.52;23.77;;;;;;;;;;5016868;28;20053;-94
2024/03/10 12:43:10;;;;;;;23.27;19.73;;;;;;;;;;5015821;28;20064;-95
2024/03/10 12:45:38;;;;;;;22.38;19.85;;;;;;;;;;5017313;28;20037;-94
2024/03/10 12:48:06;;;;;;;25.73;23.33;;;;;;;;;;5019210;28;20018;-95
2024/03/10 12:50:32;;;;;;;21.45;19.23;;;;;;;;;;5018624;28;20034;-93
2024/03/10 12:53:02;;;;;;;22.17;20.08;;;;;;;;;;5016651;28;20247;-92
2024/03/10 12:55:28;;;;;;;21.50;19.33;;;;;;;;;;5017074;28;20028;-90
2024/03/10 12:57:56;;;;;;;20.45;18.40;;;;;;;;;;5017742;28;20387;-94
2024/03/10 13:00:30;;;;;;;18.42;16.60;;;;;;;;;;5000984;28;20030;-92
2024/03/10 13:02:56;;;;;;;20.15;18.13;;;;;;;;;;5017134;28;20034;-94
2024/03/10 13:05:29;;;;;;;18.08;16.17;;;;;;;;;;5018123;28;20034;-93
2024/03/10 13:08:01;;;;;;;16.98;14.27;;;;;;;;;;5033650;28;20081;-92
2024/03/10 13:10:36;;;;;;;19.58;17.48;;;;;;;;;;5025642;28;20041;-95
2024/03/10 13:13:07;;;;;;;20.83;18.52;;;;;;;;;;5017128;28;20034;-95
2024/03/10 13:15:42;;;;;;;25.70;23.13;;;;;;;;;;4996045;28;20026;-93
2024/03/10 13:18:10;;;;;;;26.20;21.80;;;;;;;;;;5013887;28;20039;-94
2024/03/10 13:20:40;;;;;;;27.67;25.08;;;;;;;;;;5015843;28;20502;-93
2024/03/10 13:25:56;;;;;;;23.10;20.75;;;;;;;;;;5007511;28;20038;-91
2024/03/10 13:28:24;;;;;;;23.27;18.75;;;;;;;;;;4998175;28;20042;-90
2024/03/10 13:30:50;;;;;;;19.92;17.27;;;;;;;;;;4980501;28;20039;-95
2024/03/10 13:36:08;;;;;;;23.80;19.02;;;;;;;;;;5000528;28;20046;-93
2024/03/10 13:38:35;;;;;;;22.58;19.80;;;;;;;;;;5002252;28;20026;-93
2024/03/10 13:41:05;;;;;;;25.88;22.80;;;;;;;;;;5004161;28;20045;-91
2024/03/10 13:43:31;;;;;;;28.45;22.27;;;;;;;;;;4995746;28;20491;-92
2024/03/10 13:45:57;;;;;;;27.13;22.45;;;;;;;;;;4995725;28;20041;-91
2024/03/10 13:48:23;;;;;;;33.72;27.95;;;;;;;;;;4995655;28;20025;-92
2024/03/10 13:50:51;;;;;;;30.55;26.88;;;;;;;;;;4996286;28;20073;-92
2024/03/10 13:53:20;;;;;;;32.67;24.33;;;;;;;;;;4995815;28;20121;-92
2024/03/10 13:55:46;;;;;;;32.35;29.05;;;;;;;;;;4995148;28;20046;-94
2024/03/10 13:58:12;;;;;;;30.23;25.92;;;;;;;;;;5000028;28;20026;-92
2024/03/10 14:00:38;;;;;;;31.95;28.63;;;;;;;;;;5010847;28;20015;-90
2024/03/10 14:03:08;;;;;;;28.38;22.98;;;;;;;;;;5013403;28;20107;-92
2024/03/10 14:05:43;;;;;;;35.83;32.00;;;;;;;;;;5002229;28;20026;-92
2024/03/10 14:08:09;;;;;;;26.38;21.27;;;;;;;;;;4997602;28;20042;-92
2024/03/10 14:10:38;;;;;;;28.90;25.67;;;;;;;;;;4998569;28;20013;-92
2024/03/10 14:13:07;;;;;;;29.25;25.60;;;;;;;;;;4997559;28;20042;-92
2024/03/10 14:15:35;;;;;;;32.17;25.52;;;;;;;;;;4995370;28;20030;-92
2024/03/10 14:18:05;;;;;;;30.75;25.98;;;;;;;;;;5005669;28;20027;-93
2024/03/10 14:20:31;;;;;;;44.30;39.83;;;;;;;;;;4982248;28;20038;-92
2024/03/10 14:22:58;;;;;;;27.85;24.15;;;;;;;;;;4997124;28;20039;-95
2024/03/10 14:25:26;;;;;;;27.60;20.88;;;;;;;;;;4996135;28;20027;-96
2024/03/10 14:28:03;;;;;;;26.30;21.85;;;;;;;;;;5044383;22;20042;-94
2024/03/10 14:30:31;;;;;;;31.67;25.85;;;;;;;;;;5003918;28;20053;-95
2024/03/10 14:35:29;;;;;;;31.27;24.60;;;;;;;;;;5038550;28;20060;-96
2024/03/10 14:37:55;;;;;;;25.85;21.25;;;;;;;;;;5020880;28;20025;-95
2024/03/10 14:40:33;;;;;;;27.45;23.50;;;;;;;;;;5023979;28;20414;-91
2024/03/10 14:42:59;;;;;;;33.85;30.45;;;;;;;;;;5159598;23;20265;-95
2024/03/10 14:45:29;;;;;;;30.80;24.77;;;;;;;;;;5048177;28;20038;-94
2024/03/10 14:47:55;;;;;;;28.25;23.17;;;;;;;;;;5053275;28;20029;-91
2024/03/10 14:50:23;;;;;;;27.20;24.30;;;;;;;;;;5045812;28;20056;-90
2024/03/10 14:52:52;;;;;;;29.92;25.02;;;;;;;;;;5036988;28;20067;-91